createdAt,value
2019-04-27T00:00:49.711Z,4.05
2019-04-27T00:06:08.639Z,4.33
2019-04-27T00:11:33.204Z,4.00
2019-04-27T00:16:53.621Z,3.70
2019-04-27T00:22:16.544Z,4.28
2019-04-27T00:27:23.450Z,4.55
2019-04-27T00:32:29.505Z,4.92
2019-04-27T00:37:53.056Z,4.10
2019-04-27T00:42:59.239Z,3.83
2019-04-27T00:48:05.466Z,3.77
2019-04-27T00:53:13.269Z,4.17
2019-04-27T00:58:30.571Z,4.60
2019-04-27T01:03:39.937Z,4.37
2019-04-27T01:08:46.235Z,4.70
2019-04-27T01:13:53.758Z,4.33
2019-04-27T01:19:00.096Z,3.83
2019-04-27T01:24:06.300Z,4.62
2019-04-27T01:29:14.860Z,4.53
2019-04-27T01:34:21.337Z,4.83
2019-04-27T01:39:28.960Z,5.65
2019-04-27T01:44:35.475Z,4.75
2019-04-27T01:49:41.557Z,5.37
2019-04-27T01:54:49.397Z,4.00
2019-04-27T01:59:55.485Z,3.55
2019-04-27T02:05:18.881Z,4.03
2019-04-27T02:10:24.728Z,4.00
2019-04-27T02:15:30.889Z,3.77
2019-04-27T02:20:38.775Z,3.85
2019-04-27T02:25:45.095Z,4.30
2019-04-27T02:31:24.142Z,5.33
2019-04-27T02:36:30.680Z,5.37
2019-04-27T02:41:36.872Z,5.47
2019-04-27T02:46:42.979Z,5.72
2019-04-27T02:52:12.414Z,5.10
2019-04-27T02:57:19.805Z,5.15
2019-04-27T03:02:31.379Z,4.83
2019-04-27T03:07:39.857Z,4.35
2019-04-27T03:12:50.105Z,4.30
2019-04-27T03:18:29.710Z,4.12
2019-04-27T03:23:35.227Z,4.20
2019-04-27T03:28:41.630Z,4.53
2019-04-27T03:33:54.787Z,4.12
2019-04-27T03:38:56.387Z,3.27
2019-04-27T03:44:02.866Z,3.85
2019-04-27T03:49:09.812Z,2.50
2019-04-27T03:54:25.485Z,2.47
2019-04-27T03:59:34.321Z,3.27
2019-04-27T04:04:40.780Z,3.17
2019-04-27T04:09:47.163Z,2.90
2019-04-27T04:14:53.589Z,2.70
2019-04-27T04:20:02.061Z,2.77
2019-04-27T04:25:10.727Z,2.05
2019-04-27T04:30:16.352Z,2.42
2019-04-27T04:35:23.364Z,2.35
2019-04-27T04:40:34.833Z,2.10
2019-04-27T04:46:09.813Z,2.67
2019-04-27T04:51:13.790Z,3.50
2019-04-27T04:56:19.828Z,3.33
2019-04-27T05:01:26.097Z,3.70
2019-04-27T05:06:32.186Z,5.58
2019-04-27T05:11:39.626Z,3.58
2019-04-27T05:16:46.196Z,3.87
2019-04-27T05:21:52.398Z,4.80
2019-04-27T05:26:59.157Z,6.30
2019-04-27T05:32:05.305Z,6.95
2019-04-27T05:37:11.240Z,7.47
2019-04-27T05:42:19.972Z,7.22
2019-04-27T05:47:48.512Z,7.45
2019-04-27T05:52:53.149Z,6.60
2019-04-27T05:57:59.351Z,6.85
2019-04-27T06:03:05.759Z,7.35
2019-04-27T06:08:11.908Z,6.75
2019-04-27T06:13:18.984Z,8.70
2019-04-27T06:18:25.258Z,7.78
2019-04-27T06:23:31.694Z,7.53
2019-04-27T06:28:39.603Z,7.12
2019-04-27T06:33:45.338Z,6.05
2019-04-27T06:38:51.561Z,6.80
2019-04-27T06:43:59.215Z,6.55
2019-04-27T06:49:05.490Z,7.50
2019-04-27T06:54:11.671Z,7.67
2019-04-27T06:59:20.134Z,6.20
2019-04-27T07:04:26.234Z,8.15
2019-04-27T07:09:32.392Z,5.80
2019-04-27T07:14:52.004Z,5.83
2019-04-27T07:19:46.681Z,5.55
2019-04-27T07:24:53.006Z,4.33
2019-04-27T07:30:01.575Z,4.20
2019-04-27T07:35:09.592Z,6.33
2019-04-27T07:40:15.613Z,5.47
2019-04-27T07:45:35.042Z,5.65
2019-04-27T07:50:41.086Z,5.17
2019-04-27T07:55:47.293Z,6.78
2019-04-27T08:00:53.800Z,7.03
2019-04-27T08:06:00.052Z,7.03
2019-04-27T08:11:06.238Z,8.75
2019-04-27T08:16:12.519Z,6.35
2019-04-27T08:21:18.921Z,7.12
2019-04-27T08:26:31.127Z,7.00
2019-04-27T08:31:41.682Z,6.70
2019-04-27T08:36:49.836Z,5.80
2019-04-27T08:41:56.112Z,5.45
2019-04-27T08:47:02.538Z,5.80
2019-04-27T08:52:09.364Z,5.00
2019-04-27T08:57:15.677Z,5.47
2019-04-27T09:02:22.005Z,5.15
2019-04-27T09:07:35.401Z,5.08
2019-04-27T09:13:09.501Z,4.85
2019-04-27T09:18:19.215Z,4.97
2019-04-27T09:23:25.488Z,4.45
2019-04-27T09:28:31.798Z,4.55
2019-04-27T09:33:37.844Z,4.22
2019-04-27T09:38:43.833Z,4.42
2019-04-27T09:43:50.041Z,4.30
2019-04-27T09:48:56.581Z,4.55
2019-04-27T09:54:02.825Z,3.42
2019-04-27T09:59:09.097Z,3.70
2019-04-27T10:04:15.669Z,3.52
2019-04-27T10:09:23.522Z,4.05
2019-04-27T10:14:29.689Z,3.35
2019-04-27T10:19:36.578Z,3.50
2019-04-27T10:24:43.181Z,3.80
2019-04-27T10:29:49.241Z,3.62
2019-04-27T10:34:55.388Z,3.75
2019-04-27T10:40:01.508Z,3.67
2019-04-27T10:45:09.665Z,4.12
2019-04-27T10:50:16.156Z,3.50
2019-04-27T10:55:22.655Z,3.15
2019-04-27T11:00:40.558Z,3.05
2019-04-27T11:06:05.923Z,2.92
2019-04-27T11:11:12.232Z,3.25
2019-04-27T11:16:18.225Z,2.95
2019-04-27T11:21:26.123Z,3.35
2019-04-27T11:26:32.887Z,3.58
2019-04-27T11:31:39.214Z,3.10
2019-04-27T11:37:10.212Z,3.77
2019-04-27T11:42:16.295Z,3.33
2019-04-27T11:47:22.505Z,2.80
2019-04-27T11:52:28.782Z,2.83
2019-04-27T11:57:35.770Z,2.75
2019-04-27T12:02:42.985Z,2.92
2019-04-27T12:07:49.150Z,3.02
2019-04-27T12:12:56.285Z,3.42
2019-04-27T12:18:02.632Z,3.20
2019-04-27T12:23:08.794Z,3.22
2019-04-27T12:28:36.813Z,2.77
2019-04-27T12:33:42.967Z,3.05
2019-04-27T12:38:49.132Z,3.30
2019-04-27T12:43:56.048Z,3.50
2019-04-27T12:49:02.533Z,2.92
2019-04-27T12:54:16.156Z,2.72
2019-04-27T12:59:40.194Z,2.42
2019-04-27T13:04:46.785Z,3.30
2019-04-27T13:09:53.009Z,3.05
2019-04-27T13:14:59.369Z,3.10
2019-04-27T13:20:06.375Z,2.22
2019-04-27T13:25:12.831Z,2.80
2019-04-27T13:30:19.613Z,3.25
2019-04-27T13:35:25.977Z,3.00
2019-04-27T13:40:35.732Z,3.15
2019-04-27T13:46:15.818Z,3.08
2019-04-27T13:51:41.576Z,3.60
2019-04-27T13:56:47.913Z,3.50
2019-04-27T14:01:54.261Z,2.87
2019-04-27T14:07:00.758Z,3.77
2019-04-27T14:12:22.025Z,3.17
2019-04-27T14:17:29.359Z,2.80
2019-04-27T14:22:35.654Z,3.52
2019-04-27T14:27:42.009Z,3.20
2019-04-27T14:32:48.098Z,2.90
2019-04-27T14:37:54.293Z,3.00
2019-04-27T14:43:00.402Z,3.45
2019-04-27T14:48:08.308Z,3.22
2019-04-27T14:53:14.688Z,3.40
2019-04-27T14:58:20.906Z,3.08
2019-04-27T15:03:27.249Z,2.87
2019-04-27T15:08:34.107Z,3.50
2019-04-27T15:13:43.029Z,3.58
2019-04-27T15:18:53.557Z,4.05
2019-04-27T15:24:02.446Z,3.67
2019-04-27T15:29:08.934Z,3.95
2019-04-27T15:34:40.062Z,3.30
2019-04-27T15:40:10.034Z,4.07
2019-04-27T15:45:15.861Z,3.45
2019-04-27T15:50:23.443Z,4.45
2019-04-27T15:55:34.550Z,3.60
2019-04-27T16:00:38.266Z,3.55
2019-04-27T16:05:44.609Z,3.42
2019-04-27T16:10:50.870Z,3.30
2019-04-27T16:15:58.436Z,3.90
2019-04-27T16:21:07.169Z,4.08
2019-04-27T16:26:14.936Z,3.00
2019-04-27T16:31:24.955Z,3.60
2019-04-27T16:36:29.259Z,4.08
2019-04-27T16:41:37.462Z,3.62
2019-04-27T16:46:43.326Z,2.92
2019-04-27T16:51:49.596Z,3.50
2019-04-27T16:57:04.021Z,3.30
2019-04-27T17:02:03.822Z,3.15
2019-04-27T17:07:11.265Z,3.77
2019-04-27T17:12:18.464Z,4.05
2019-04-27T17:17:38.662Z,4.25
2019-04-27T17:22:49.355Z,3.65
2019-04-27T17:28:04.148Z,3.30
2019-04-27T17:33:21.149Z,4.00
2019-04-27T17:38:28.688Z,3.02
2019-04-27T17:43:37.477Z,3.10
2019-04-27T17:48:42.445Z,3.35
2019-04-27T17:53:50.029Z,3.67
2019-04-27T17:58:58.422Z,4.05
2019-04-27T18:04:06.457Z,4.42
2019-04-27T18:09:19.113Z,3.62
2019-04-27T18:14:25.381Z,3.22
2019-04-27T18:19:44.283Z,4.35
2019-04-27T18:25:03.273Z,4.72
2019-04-27T18:30:28.185Z,8.83
2019-04-27T18:35:34.260Z,4.62
2019-04-27T18:40:40.703Z,4.90
2019-04-27T18:45:48.499Z,4.40
2019-04-27T18:51:01.710Z,5.33
2019-04-27T18:56:10.331Z,4.55
2019-04-27T19:01:15.857Z,4.53
2019-04-27T19:06:21.940Z,8.98
2019-04-27T19:11:29.064Z,14.43
2019-04-27T19:16:35.134Z,13.15
2019-04-27T19:21:41.734Z,5.30
2019-04-27T19:27:16.137Z,4.70
2019-04-27T19:32:15.192Z,5.22
2019-04-27T19:37:21.341Z,4.30
2019-04-27T19:42:28.589Z,3.52
2019-04-27T19:47:34.693Z,4.10
2019-04-27T19:52:40.623Z,4.62
2019-04-27T19:57:46.907Z,4.10
2019-04-27T20:02:53.133Z,4.35
2019-04-27T20:08:01.919Z,4.05
2019-04-27T20:13:08.026Z,4.33
2019-04-27T20:18:14.106Z,4.85
2019-04-27T20:23:22.246Z,4.97
2019-04-27T20:28:28.304Z,5.08
2019-04-27T20:33:34.274Z,5.00
2019-04-27T20:38:41.864Z,5.28
2019-04-27T20:43:48.421Z,5.70
2019-04-27T20:48:54.637Z,5.60
2019-04-27T20:54:01.772Z,5.92
2019-04-27T20:59:07.899Z,4.95
2019-04-27T21:04:15.298Z,4.37
2019-04-27T21:09:21.440Z,5.42
2019-04-27T21:14:27.601Z,4.42
2019-04-27T21:19:33.746Z,5.58
2019-04-27T21:24:41.346Z,4.12
2019-04-27T21:29:47.445Z,4.00
2019-04-27T21:34:53.549Z,4.72
2019-04-27T21:40:17.512Z,4.35
2019-04-27T21:45:23.961Z,4.40
2019-04-27T21:50:31.402Z,4.75
2019-04-27T21:55:37.760Z,4.47
2019-04-27T22:01:01.890Z,4.72
2019-04-27T22:06:08.229Z,4.75
2019-04-27T22:11:14.522Z,4.97
2019-04-27T22:16:21.290Z,3.58
2019-04-27T22:21:27.654Z,4.20
2019-04-27T22:26:34.074Z,4.17
2019-04-27T22:31:41.508Z,4.70
2019-04-27T22:36:47.766Z,4.12
2019-04-27T22:42:12.729Z,4.40
2019-04-27T22:47:21.618Z,4.97
2019-04-27T22:52:27.785Z,4.75
2019-04-27T22:57:43.869Z,4.22
2019-04-27T23:03:02.333Z,4.60
2019-04-27T23:08:08.888Z,5.12
2019-04-27T23:13:15.263Z,4.25
2019-04-27T23:18:22.668Z,4.00
2019-04-27T23:23:30.900Z,4.62
2019-04-27T23:28:36.765Z,4.75
2019-04-27T23:33:46.329Z,5.42
2019-04-27T23:38:52.689Z,5.15
2019-04-27T23:43:58.941Z,4.47
2019-04-27T23:49:05.139Z,4.53
2019-04-27T23:54:11.644Z,4.05
2019-04-27T23:59:24.735Z,4.72
